sensor_id;sensor_type;location;lat;lon;timestamp;pressure;altitude;pressure_sealevel;temperature;humidity
62712;BME280;48772;55.586;37.730;2022-08-07T00:01:59;99440.06;;;23.35;58.91
62712;BME280;48772;55.586;37.730;2022-08-07T00:04:24;99429.59;;;23.32;58.77
62712;BME280;48772;55.586;37.730;2022-08-07T00:06:50;99415.38;;;23.30;58.36
62712;BME280;48772;55.586;37.730;2022-08-07T00:09:16;99427.69;;;23.39;58.53
62712;BME280;48772;55.586;37.730;2022-08-07T00:11:42;99394.81;;;23.21;58.56
62712;BME280;48772;55.586;37.730;2022-08-07T00:14:07;99419.53;;;23.32;58.46
62712;BME280;48772;55.586;37.730;2022-08-07T00:16:33;99414.91;;;23.33;58.49
62712;BME280;48772;55.586;37.730;2022-08-07T00:18:59;99433.56;;;23.36;58.68
62712;BME280;48772;55.586;37.730;2022-08-07T00:21:25;99424.13;;;23.19;58.90
62712;BME280;48772;55.586;37.730;2022-08-07T00:23:51;99400.84;;;22.97;59.55
62712;BME280;48772;55.586;37.730;2022-08-07T00:26:16;99426.81;;;23.12;59.51
62712;BME280;48772;55.586;37.730;2022-08-07T00:28:42;99420.75;;;23.04;59.34
62712;BME280;48772;55.586;37.730;2022-08-07T00:31:11;99432.06;;;23.07;59.45
62712;BME280;48772;55.586;37.730;2022-08-07T00:33:38;99442.50;;;23.04;60.00
62712;BME280;48772;55.586;37.730;2022-08-07T00:36:06;99426.19;;;22.97;59.78
62712;BME280;48772;55.586;37.730;2022-08-07T00:38:32;99434.13;;;22.99;59.71
62712;BME280;48772;55.586;37.730;2022-08-07T00:41:02;99416.97;;;22.79;59.52
62712;BME280;48772;55.586;37.730;2022-08-07T00:43:28;99406.91;;;22.66;59.61
62712;BME280;48772;55.586;37.730;2022-08-07T00:45:54;99410.03;;;22.70;59.67
62712;BME280;48772;55.586;37.730;2022-08-07T00:48:20;99430.56;;;22.79;59.73
62712;BME280;48772;55.586;37.730;2022-08-07T00:50:46;99431.81;;;22.83;59.86
62712;BME280;48772;55.586;37.730;2022-08-07T00:53:11;99419.66;;;22.72;59.94
62712;BME280;48772;55.586;37.730;2022-08-07T00:55:37;99428.66;;;22.79;60.09
62712;BME280;48772;55.586;37.730;2022-08-07T00:58:03;99427.81;;;22.72;60.05
62712;BME280;48772;55.586;37.730;2022-08-07T01:00:29;99408.09;;;22.51;59.92
62712;BME280;48772;55.586;37.730;2022-08-07T01:02:55;99414.00;;;22.61;60.18
62712;BME280;48772;55.586;37.730;2022-08-07T01:05:21;99420.03;;;22.63;60.00
62712;BME280;48772;55.586;37.730;2022-08-07T01:07:47;99438.66;;;22.66;60.22
62712;BME280;48772;55.586;37.730;2022-08-07T01:10:13;99409.78;;;22.52;60.27
62712;BME280;48772;55.586;37.730;2022-08-07T01:12:41;99422.09;;;22.48;60.17
62712;BME280;48772;55.586;37.730;2022-08-07T01:15:08;99425.66;;;22.48;60.51
62712;BME280;48772;55.586;37.730;2022-08-07T01:17:34;99422.84;;;22.35;60.87
62712;BME280;48772;55.586;37.730;2022-08-07T01:20:06;99433.09;;;22.33;61.14
62712;BME280;48772;55.586;37.730;2022-08-07T01:22:33;99431.84;;;22.35;60.97
62712;BME280;48772;55.586;37.730;2022-08-07T01:24:59;99423.03;;;22.27;60.97
62712;BME280;48772;55.586;37.730;2022-08-07T01:27:25;99429.94;;;22.29;60.96
62712;BME280;48772;55.586;37.730;2022-08-07T01:29:52;99418.84;;;22.24;60.70
62712;BME280;48772;55.586;37.730;2022-08-07T01:32:20;99430.13;;;22.28;61.15
62712;BME280;48772;55.586;37.730;2022-08-07T01:34:46;99433.47;;;22.23;61.05
62712;BME280;48772;55.586;37.730;2022-08-07T01:37:14;99400.41;;;22.07;60.76
62712;BME280;48772;55.586;37.730;2022-08-07T01:39:46;99429.69;;;22.18;61.21
62712;BME280;48772;55.586;37.730;2022-08-07T01:42:33;99427.41;;;22.21;60.83
62712;BME280;48772;55.586;37.730;2022-08-07T01:45:03;99420.91;;;22.16;61.17
62712;BME280;48772;55.586;37.730;2022-08-07T01:47:29;99406.44;;;22.02;61.11
62712;BME280;48772;55.586;37.730;2022-08-07T01:49:56;99425.06;;;22.12;61.01
62712;BME280;48772;55.586;37.730;2022-08-07T01:52:25;99418.75;;;22.05;61.26
62712;BME280;48772;55.586;37.730;2022-08-07T01:54:54;99438.84;;;22.10;61.01
62712;BME280;48772;55.586;37.730;2022-08-07T01:57:30;99428.34;;;22.01;61.67
62712;BME280;48772;55.586;37.730;2022-08-07T02:02:41;99421.44;;;21.98;61.97
62712;BME280;48772;55.586;37.730;2022-08-07T02:05:15;99418.69;;;21.92;61.39
62712;BME280;48772;55.586;37.730;2022-08-07T02:07:49;99410.50;;;21.85;61.32
62712;BME280;48772;55.586;37.730;2022-08-07T02:10:23;99422.25;;;21.92;61.17
62712;BME280;48772;55.586;37.730;2022-08-07T02:12:51;99413.22;;;21.85;61.76
62712;BME280;48772;55.586;37.730;2022-08-07T02:15:25;99420.38;;;21.93;61.27
62712;BME280;48772;55.586;37.730;2022-08-07T02:17:53;99419.75;;;21.97;61.30
62712;BME280;48772;55.586;37.730;2022-08-07T02:20:20;99421.44;;;21.98;60.89
62712;BME280;48772;55.586;37.730;2022-08-07T02:22:47;99398.44;;;21.94;60.42
62712;BME280;48772;55.586;37.730;2022-08-07T02:25:15;99407.03;;;22.04;60.80
62712;BME280;48772;55.586;37.730;2022-08-07T02:27:46;99401.78;;;21.96;60.35
62712;BME280;48772;55.586;37.730;2022-08-07T02:30:13;99394.47;;;21.90;60.20
62712;BME280;48772;55.586;37.730;2022-08-07T02:32:39;99405.31;;;21.90;60.44
62712;BME280;48772;55.586;37.730;2022-08-07T02:35:07;99409.31;;;21.94;60.47
62712;BME280;48772;55.586;37.730;2022-08-07T02:37:38;99390.94;;;21.96;60.13
62712;BME280;48772;55.586;37.730;2022-08-07T02:40:08;99399.09;;;22.03;59.91
62712;BME280;48772;55.586;37.730;2022-08-07T02:42:34;99398.47;;;22.01;59.91
62712;BME280;48772;55.586;37.730;2022-08-07T02:45:03;99391.97;;;21.95;59.69
62712;BME280;48772;55.586;37.730;2022-08-07T02:47:31;99408.75;;;22.05;60.13
62712;BME280;48772;55.586;37.730;2022-08-07T02:50:06;99407.91;;;22.05;59.39
62712;BME280;48772;55.586;37.730;2022-08-07T02:52:40;99413.78;;;22.15;59.83
62712;BME280;48772;55.586;37.730;2022-08-07T02:55:13;99418.41;;;22.21;59.67
62712;BME280;48772;55.586;37.730;2022-08-07T02:57:41;99419.84;;;22.17;59.59
62712;BME280;48772;55.586;37.730;2022-08-07T03:00:08;99414.88;;;22.20;59.43
62712;BME280;48772;55.586;37.730;2022-08-07T03:02:36;99425.72;;;22.20;59.08
62712;BME280;48772;55.586;37.730;2022-08-07T03:05:04;99404.59;;;22.09;59.43
62712;BME280;48772;55.586;37.730;2022-08-07T03:07:31;99421.56;;;22.24;59.02
62712;BME280;48772;55.586;37.730;2022-08-07T03:09:58;99415.66;;;22.14;59.23
62712;BME280;48772;55.586;37.730;2022-08-07T03:12:24;99404.97;;;22.06;59.13
62712;BME280;48772;55.586;37.730;2022-08-07T03:14:54;99414.66;;;22.22;59.55
62712;BME280;48772;55.586;37.730;2022-08-07T03:17:23;99408.97;;;22.17;59.21
62712;BME280;48772;55.586;37.730;2022-08-07T03:19:52;99427.00;;;22.24;58.74
62712;BME280;48772;55.586;37.730;2022-08-07T03:22:20;99417.59;;;22.27;58.84
62712;BME280;48772;55.586;37.730;2022-08-07T03:24:48;99413.88;;;22.34;58.79
62712;BME280;48772;55.586;37.730;2022-08-07T03:27:15;99380.34;;;22.14;58.44
62712;BME280;48772;55.586;37.730;2022-08-07T03:29:46;99432.75;;;22.49;58.63
62712;BME280;48772;55.586;37.730;2022-08-07T03:32:14;99399.66;;;22.39;58.46
62712;BME280;48772;55.586;37.730;2022-08-07T03:34:46;99413.50;;;22.44;58.14
62712;BME280;48772;55.586;37.730;2022-08-07T03:37:13;99368.63;;;22.14;58.49
62712;BME280;48772;55.586;37.730;2022-08-07T03:39:43;99425.28;;;22.58;58.33
62712;BME280;48772;55.586;37.730;2022-08-07T03:42:13;99412.84;;;22.35;58.66
62712;BME280;48772;55.586;37.730;2022-08-07T03:44:40;99415.16;;;22.45;58.43
62712;BME280;48772;55.586;37.730;2022-08-07T03:47:08;99411.44;;;22.52;58.18
62712;BME280;48772;55.586;37.730;2022-08-07T03:49:35;99418.78;;;22.65;57.83
62712;BME280;48772;55.586;37.730;2022-08-07T03:52:02;99410.44;;;22.67;57.79
62712;BME280;48772;55.586;37.730;2022-08-07T03:54:30;99410.63;;;22.65;57.58
62712;BME280;48772;55.586;37.730;2022-08-07T03:56:56;99411.53;;;22.79;57.22
62712;BME280;48772;55.586;37.730;2022-08-07T03:59:22;99387.81;;;22.60;57.38
62712;BME280;48772;55.586;37.730;2022-08-07T04:01:52;99430.34;;;22.87;56.87
62712;BME280;48772;55.586;37.730;2022-08-07T04:04:21;99423.25;;;22.92;57.21
62712;BME280;48772;55.586;37.730;2022-08-07T04:06:51;99406.50;;;22.89;56.98
62712;BME280;48772;55.586;37.730;2022-08-07T04:09:20;99425.34;;;22.97;56.79
62712;BME280;48772;55.586;37.730;2022-08-07T04:11:48;99421.78;;;23.03;56.85
62712;BME280;48772;55.586;37.730;2022-08-07T04:14:14;99429.94;;;23.03;56.77
62712;BME280;48772;55.586;37.730;2022-08-07T04:16:41;99424.09;;;23.06;56.98
62712;BME280;48772;55.586;37.730;2022-08-07T04:19:07;99413.19;;;22.86;56.81
62712;BME280;48772;55.586;37.730;2022-08-07T04:21:34;99418.88;;;23.04;56.83
62712;BME280;48772;55.586;37.730;2022-08-07T04:24:01;99409.88;;;23.10;56.62
62712;BME280;48772;55.586;37.730;2022-08-07T04:26:28;99427.06;;;23.24;56.27
62712;BME280;48772;55.586;37.730;2022-08-07T04:28:55;99421.44;;;23.25;55.99
62712;BME280;48772;55.586;37.730;2022-08-07T04:31:24;99389.78;;;23.18;56.07
62712;BME280;48772;55.586;37.730;2022-08-07T04:33:50;99413.91;;;23.34;55.87
62712;BME280;48772;55.586;37.730;2022-08-07T04:36:16;99422.88;;;23.54;56.07
62712;BME280;48772;55.586;37.730;2022-08-07T04:38:43;99419.09;;;23.55;55.52
62712;BME280;48772;55.586;37.730;2022-08-07T04:41:09;99408.84;;;23.44;55.57
62712;BME280;48772;55.586;37.730;2022-08-07T04:43:42;99418.66;;;23.58;55.35
62712;BME280;48772;55.586;37.730;2022-08-07T04:49:02;99436.03;;;23.70;55.54
62712;BME280;48772;55.586;37.730;2022-08-07T05:00:04;99431.19;;;23.98;54.79
62712;BME280;48772;55.586;37.730;2022-08-07T05:02:38;99438.31;;;24.05;54.33
62712;BME280;48772;55.586;37.730;2022-08-07T05:07:59;99425.19;;;24.33;54.19
62712;BME280;48772;55.586;37.730;2022-08-07T05:13:27;99432.47;;;24.46;54.16
62712;BME280;48772;55.586;37.730;2022-08-07T05:15:56;99422.38;;;24.53;53.71
62712;BME280;48772;55.586;37.730;2022-08-07T05:18:28;99434.28;;;24.65;53.57
62712;BME280;48772;55.586;37.730;2022-08-07T05:21:00;99425.88;;;24.73;53.54
62712;BME280;48772;55.586;37.730;2022-08-07T05:23:50;99432.66;;;24.95;52.94
62712;BME280;48772;55.586;37.730;2022-08-07T05:26:21;99426.75;;;24.98;52.42
62712;BME280;48772;55.586;37.730;2022-08-07T05:28:52;99437.72;;;25.22;52.34
62712;BME280;48772;55.586;37.730;2022-08-07T05:31:25;99431.56;;;25.27;52.35
62712;BME280;48772;55.586;37.730;2022-08-07T05:33:52;99429.50;;;25.29;52.53
62712;BME280;48772;55.586;37.730;2022-08-07T05:36:20;99431.50;;;25.40;52.25
62712;BME280;48772;55.586;37.730;2022-08-07T05:38:48;99425.41;;;25.38;52.49
62712;BME280;48772;55.586;37.730;2022-08-07T05:41:15;99406.78;;;25.35;51.68
62712;BME280;48772;55.586;37.730;2022-08-07T05:43:46;99417.22;;;25.63;51.66
62712;BME280;48772;55.586;37.730;2022-08-07T05:46:15;99413.81;;;25.67;51.66
62712;BME280;48772;55.586;37.730;2022-08-07T05:48:41;99431.00;;;25.92;51.12
62712;BME280;48772;55.586;37.730;2022-08-07T05:51:09;99441.22;;;26.03;50.64
62712;BME280;48772;55.586;37.730;2022-08-07T05:53:35;99434.97;;;26.14;50.71
62712;BME280;48772;55.586;37.730;2022-08-07T05:56:03;99413.78;;;26.28;49.73
62712;BME280;48772;55.586;37.730;2022-08-07T05:58:32;99428.41;;;26.51;49.70
62712;BME280;48772;55.586;37.730;2022-08-07T06:01:00;99442.94;;;26.70;48.77
62712;BME280;48772;55.586;37.730;2022-08-07T06:03:27;99430.25;;;26.75;49.26
62712;BME280;48772;55.586;37.730;2022-08-07T06:05:56;99420.31;;;27.04;48.71
62712;BME280;48772;55.586;37.730;2022-08-07T06:08:24;99433.44;;;27.13;48.42
62712;BME280;48772;55.586;37.730;2022-08-07T06:10:51;99425.06;;;27.26;47.33
62712;BME280;48772;55.586;37.730;2022-08-07T06:13:17;99440.66;;;27.26;47.42
62712;BME280;48772;55.586;37.730;2022-08-07T06:15:44;99419.91;;;27.18;47.61
62712;BME280;48772;55.586;37.730;2022-08-07T06:18:18;99429.25;;;27.40;47.25
62712;BME280;48772;55.586;37.730;2022-08-07T06:20:46;99423.78;;;27.52;47.20
62712;BME280;48772;55.586;37.730;2022-08-07T06:23:13;99412.22;;;27.61;46.79
62712;BME280;48772;55.586;37.730;2022-08-07T06:25:40;99433.47;;;28.00;46.16
62712;BME280;48772;55.586;37.730;2022-08-07T06:28:09;99437.75;;;28.08;45.36
62712;BME280;48772;55.586;37.730;2022-08-07T06:30:37;99423.34;;;27.89;46.09
62712;BME280;48772;55.586;37.730;2022-08-07T06:33:10;99422.13;;;27.62;46.20
62712;BME280;48772;55.586;37.730;2022-08-07T06:35:36;99439.88;;;27.48;46.11
62712;BME280;48772;55.586;37.730;2022-08-07T06:38:05;99451.06;;;27.47;46.76
62712;BME280;48772;55.586;37.730;2022-08-07T06:40:50;99423.28;;;27.43;46.69
62712;BME280;48772;55.586;37.730;2022-08-07T06:43:20;99443.13;;;27.91;46.15
62712;BME280;48772;55.586;37.730;2022-08-07T06:46:05;99441.06;;;28.10;45.86
62712;BME280;48772;55.586;37.730;2022-08-07T06:48:33;99430.44;;;28.48;45.24
62712;BME280;48772;55.586;37.730;2022-08-07T06:51:03;99432.16;;;28.66;44.91
62712;BME280;48772;55.586;37.730;2022-08-07T06:53:33;99430.72;;;28.63;44.66
62712;BME280;48772;55.586;37.730;2022-08-07T06:56:07;99393.44;;;28.51;44.97
62712;BME280;48772;55.586;37.730;2022-08-07T06:58:37;99396.16;;;28.79;44.14
62712;BME280;48772;55.586;37.730;2022-08-07T07:01:11;99420.94;;;29.12;43.06
62712;BME280;48772;55.586;37.730;2022-08-07T07:03:38;99436.16;;;29.31;42.04
62712;BME280;48772;55.586;37.730;2022-08-07T07:06:07;99424.88;;;29.32;42.21
62712;BME280;48772;55.586;37.730;2022-08-07T07:08:34;99450.22;;;29.51;41.01
62712;BME280;48772;55.586;37.730;2022-08-07T07:11:02;99411.44;;;29.47;40.54
62712;BME280;48772;55.586;37.730;2022-08-07T07:13:32;99451.00;;;29.63;38.73
62712;BME280;48772;55.586;37.730;2022-08-07T07:16:01;99445.59;;;29.68;38.29
62712;BME280;48772;55.586;37.730;2022-08-07T07:18:40;99431.91;;;29.73;38.55
62712;BME280;48772;55.586;37.730;2022-08-07T07:21:16;99430.56;;;29.92;38.28
62712;BME280;48772;55.586;37.730;2022-08-07T07:23:44;99434.03;;;30.04;38.13
62712;BME280;48772;55.586;37.730;2022-08-07T07:26:13;99427.69;;;30.03;37.45
62712;BME280;48772;55.586;37.730;2022-08-07T07:28:59;99436.34;;;30.12;38.16
62712;BME280;48772;55.586;37.730;2022-08-07T07:31:34;99426.53;;;30.16;38.47
62712;BME280;48772;55.586;37.730;2022-08-07T07:34:06;99416.09;;;30.18;38.16
62712;BME280;48772;55.586;37.730;2022-08-07T07:36:33;99428.84;;;30.45;37.67
62712;BME280;48772;55.586;37.730;2022-08-07T07:39:02;99423.16;;;30.52;36.12
62712;BME280;48772;55.586;37.730;2022-08-07T07:41:31;99431.84;;;30.44;35.30
62712;BME280;48772;55.586;37.730;2022-08-07T07:43:59;99442.53;;;30.62;34.61
62712;BME280;48772;55.586;37.730;2022-08-07T07:46:34;99411.25;;;30.46;34.90
62712;BME280;48772;55.586;37.730;2022-08-07T07:49:02;99416.81;;;30.73;34.92
62712;BME280;48772;55.586;37.730;2022-08-07T07:51:29;99430.69;;;30.40;35.43
62712;BME280;48772;55.586;37.730;2022-08-07T07:53:57;99412.09;;;29.87;36.21
62712;BME280;48772;55.586;37.730;2022-08-07T07:56:25;99424.66;;;29.67;37.20
62712;BME280;48772;55.586;37.730;2022-08-07T07:58:53;99423.81;;;29.50;37.67
62712;BME280;48772;55.586;37.730;2022-08-07T08:01:21;99431.03;;;29.23;38.74
62712;BME280;48772;55.586;37.730;2022-08-07T08:03:48;99420.19;;;29.61;37.44
62712;BME280;48772;55.586;37.730;2022-08-07T08:06:17;99398.28;;;30.04;37.56
62712;BME280;48772;55.586;37.730;2022-08-07T08:08:44;99411.69;;;30.60;36.58
62712;BME280;48772;55.586;37.730;2022-08-07T08:11:11;99422.84;;;30.96;35.03
62712;BME280;48772;55.586;37.730;2022-08-07T08:13:41;99411.44;;;31.14;34.59
62712;BME280;48772;55.586;37.730;2022-08-07T08:16:08;99424.25;;;31.26;34.89
62712;BME280;48772;55.586;37.730;2022-08-07T08:18:37;99431.94;;;30.97;35.23
62712;BME280;48772;55.586;37.730;2022-08-07T08:21:04;99416.00;;;30.72;36.13
62712;BME280;48772;55.586;37.730;2022-08-07T08:23:32;99417.38;;;30.75;36.27
62712;BME280;48772;55.586;37.730;2022-08-07T08:26:18;99418.44;;;31.54;35.17
62712;BME280;48772;55.586;37.730;2022-08-07T08:29:03;99392.66;;;31.33;36.05
62712;BME280;48772;55.586;37.730;2022-08-07T08:31:33;99398.94;;;31.29;35.64
62712;BME280;48772;55.586;37.730;2022-08-07T08:34:03;99387.97;;;31.75;35.36
62712;BME280;48772;55.586;37.730;2022-08-07T08:36:32;99395.19;;;32.23;34.97
62712;BME280;48772;55.586;37.730;2022-08-07T08:38:58;99398.31;;;32.31;35.08
62712;BME280;48772;55.586;37.730;2022-08-07T08:41:30;99399.88;;;32.22;33.47
62712;BME280;48772;55.586;37.730;2022-08-07T08:44:40;99398.41;;;32.05;32.59
62712;BME280;48772;55.586;37.730;2022-08-07T08:47:22;99392.06;;;32.04;33.36
62712;BME280;48772;55.586;37.730;2022-08-07T08:52:41;99384.69;;;31.73;33.14
62712;BME280;48772;55.586;37.730;2022-08-07T08:55:29;99378.09;;;31.79;33.65
62712;BME280;48772;55.586;37.730;2022-08-07T08:58:20;99383.28;;;31.34;33.53
62712;BME280;48772;55.586;37.730;2022-08-07T09:00:51;99378.25;;;31.26;34.80
62712;BME280;48772;55.586;37.730;2022-08-07T09:03:25;99375.38;;;31.16;33.63
62712;BME280;48772;55.586;37.730;2022-08-07T09:06:02;99353.53;;;31.04;33.35
62712;BME280;48772;55.586;37.730;2022-08-07T09:11:42;99382.53;;;32.27;30.71
62712;BME280;48772;55.586;37.730;2022-08-07T09:14:17;99376.78;;;32.33;31.35
62712;BME280;48772;55.586;37.730;2022-08-07T09:16:53;99376.03;;;32.58;30.82
62712;BME280;48772;55.586;37.730;2022-08-07T09:28:07;99362.41;;;31.80;31.75
62712;BME280;48772;55.586;37.730;2022-08-07T09:31:14;99361.34;;;31.49;33.41
62712;BME280;48772;55.586;37.730;2022-08-07T09:37:35;99349.63;;;31.69;33.82
62712;BME280;48772;55.586;37.730;2022-08-07T09:39:48;99332.53;;;31.72;33.69
62712;BME280;48772;55.586;37.730;2022-08-07T09:50:29;99326.69;;;31.63;33.77
62712;BME280;48772;55.586;37.730;2022-08-07T09:53:03;99325.47;;;31.44;34.47
62712;BME280;48772;55.586;37.730;2022-08-07T10:30:15;99303.34;;;31.34;34.04
62712;BME280;48772;55.586;37.730;2022-08-07T10:35:26;99332.38;;;31.15;34.15
62712;BME280;48772;55.586;37.730;2022-08-07T10:46:53;99309.38;;;31.73;33.64
62712;BME280;48772;55.586;37.730;2022-08-07T10:49:36;99302.81;;;31.37;33.63
62712;BME280;48772;55.586;37.730;2022-08-07T10:52:11;99308.94;;;31.49;33.77
62712;BME280;48772;55.586;37.730;2022-08-07T10:55:11;99304.53;;;31.48;33.58
62712;BME280;48772;55.586;37.730;2022-08-07T11:00:12;99291.31;;;31.50;33.70
62712;BME280;48772;55.586;37.730;2022-08-07T11:05:30;99311.53;;;32.22;31.91
62712;BME280;48772;55.586;37.730;2022-08-07T11:13:58;99273.56;;;32.49;30.63
62712;BME280;48772;55.586;37.730;2022-08-07T11:16:57;99282.97;;;32.68;29.90
62712;BME280;48772;55.586;37.730;2022-08-07T11:19:54;99258.69;;;33.05;28.96
62712;BME280;48772;55.586;37.730;2022-08-07T11:23:16;99269.69;;;33.60;27.52
62712;BME280;48772;55.586;37.730;2022-08-07T11:26:20;99294.03;;;33.53;27.08
62712;BME280;48772;55.586;37.730;2022-08-07T11:35:03;99232.16;;;33.34;26.05
62712;BME280;48772;55.586;37.730;2022-08-07T11:41:01;99287.13;;;33.51;26.02
62712;BME280;48772;55.586;37.730;2022-08-07T11:58:03;99292.38;;;33.47;26.17
62712;BME280;48772;55.586;37.730;2022-08-07T12:01:01;99275.50;;;33.54;25.62
62712;BME280;48772;55.586;37.730;2022-08-07T12:06:52;99269.41;;;33.57;25.19
62712;BME280;48772;55.586;37.730;2022-08-07T12:09:34;99239.34;;;33.05;26.26
62712;BME280;48772;55.586;37.730;2022-08-07T12:12:07;99281.91;;;32.84;25.96
62712;BME280;48772;55.586;37.730;2022-08-07T12:14:56;99263.88;;;32.47;26.22
62712;BME280;48772;55.586;37.730;2022-08-07T12:17:29;99265.53;;;32.33;25.73
62712;BME280;48772;55.586;37.730;2022-08-07T12:20:09;99267.78;;;32.56;25.84
62712;BME280;48772;55.586;37.730;2022-08-07T12:22:45;99289.72;;;32.11;26.21
62712;BME280;48772;55.586;37.730;2022-08-07T12:25:35;99264.06;;;32.10;26.20
62712;BME280;48772;55.586;37.730;2022-08-07T12:28:29;99276.69;;;31.96;26.18
62712;BME280;48772;55.586;37.730;2022-08-07T12:31:05;99286.06;;;32.00;26.86
62712;BME280;48772;55.586;37.730;2022-08-07T12:33:34;99291.91;;;32.09;26.02
62712;BME280;48772;55.586;37.730;2022-08-07T12:36:03;99277.53;;;32.02;26.90
62712;BME280;48772;55.586;37.730;2022-08-07T12:38:30;99284.75;;;31.20;34.02
62712;BME280;48772;55.586;37.730;2022-08-07T12:40:58;99288.84;;;30.80;36.73
62712;BME280;48772;55.586;37.730;2022-08-07T12:43:29;99296.16;;;30.70;37.50
62712;BME280;48772;55.586;37.730;2022-08-07T12:48:56;99294.19;;;29.96;39.19
62712;BME280;48772;55.586;37.730;2022-08-07T12:51:26;99337.72;;;29.61;39.69
62712;BME280;48772;55.586;37.730;2022-08-07T12:56:41;99324.78;;;28.79;38.37
62712;BME280;48772;55.586;37.730;2022-08-07T12:59:11;99338.53;;;28.51;39.35
62712;BME280;48772;55.586;37.730;2022-08-07T13:13:40;99367.34;;;28.65;40.31
62712;BME280;48772;55.586;37.730;2022-08-07T13:21:39;99351.66;;;28.49;40.78
62712;BME280;48772;55.586;37.730;2022-08-07T13:24:39;99377.50;;;28.64;41.12
62712;BME280;48772;55.586;37.730;2022-08-07T13:29:43;99396.16;;;28.51;41.58
62712;BME280;48772;55.586;37.730;2022-08-07T13:41:01;99383.78;;;27.85;43.30
62712;BME280;48772;55.586;37.730;2022-08-07T13:43:29;99403.28;;;28.00;43.04
62712;BME280;48772;55.586;37.730;2022-08-07T13:45:59;99407.81;;;28.06;42.98
62712;BME280;48772;55.586;37.730;2022-08-07T13:48:29;99413.50;;;28.16;42.86
62712;BME280;48772;55.586;37.730;2022-08-07T13:50:57;99376.88;;;27.83;42.83
62712;BME280;48772;55.586;37.730;2022-08-07T13:53:28;99399.97;;;27.87;43.26
62712;BME280;48772;55.586;37.730;2022-08-07T13:55:57;99418.81;;;27.83;43.25
62712;BME280;48772;55.586;37.730;2022-08-07T13:58:24;99404.13;;;27.66;43.18
62712;BME280;48772;55.586;37.730;2022-08-07T14:01:15;99416.41;;;27.75;43.10
62712;BME280;48772;55.586;37.730;2022-08-07T14:03:41;99403.88;;;27.79;42.92
62712;BME280;48772;55.586;37.730;2022-08-07T14:06:10;99406.75;;;27.73;42.99
62712;BME280;48772;55.586;37.730;2022-08-07T14:08:43;99422.25;;;27.67;43.45
62712;BME280;48772;55.586;37.730;2022-08-07T14:11:15;99418.78;;;27.60;43.71
62712;BME280;48772;55.586;37.730;2022-08-07T14:13:41;99422.81;;;27.46;43.51
62712;BME280;48772;55.586;37.730;2022-08-07T14:16:16;99421.78;;;27.47;43.56
62712;BME280;48772;55.586;37.730;2022-08-07T14:18:49;99422.34;;;27.49;43.73
62712;BME280;48772;55.586;37.730;2022-08-07T14:21:21;99413.56;;;27.47;43.47
62712;BME280;48772;55.586;37.730;2022-08-07T14:24:12;99432.00;;;27.52;43.57
62712;BME280;48772;55.586;37.730;2022-08-07T14:26:42;99443.78;;;27.52;43.52
62712;BME280;48772;55.586;37.730;2022-08-07T14:29:11;99443.19;;;27.50;43.66
62712;BME280;48772;55.586;37.730;2022-08-07T14:31:40;99444.25;;;27.49;43.58
62712;BME280;48772;55.586;37.730;2022-08-07T14:34:07;99445.31;;;27.37;42.92
62712;BME280;48772;55.586;37.730;2022-08-07T14:36:34;99420.91;;;27.24;42.97
62712;BME280;48772;55.586;37.730;2022-08-07T14:39:02;99437.78;;;27.32;43.21
62712;BME280;48772;55.586;37.730;2022-08-07T14:41:30;99436.28;;;27.36;43.21
62712;BME280;48772;55.586;37.730;2022-08-07T14:44:01;99427.56;;;27.39;42.67
62712;BME280;48772;55.586;37.730;2022-08-07T14:46:30;99430.00;;;27.47;41.84
62712;BME280;48772;55.586;37.730;2022-08-07T14:49:00;99380.84;;;27.11;41.92
62712;BME280;48772;55.586;37.730;2022-08-07T14:51:27;99406.16;;;27.36;41.84
62712;BME280;48772;55.586;37.730;2022-08-07T14:53:57;99395.06;;;27.31;42.07
62712;BME280;48772;55.586;37.730;2022-08-07T14:56:27;99432.97;;;27.46;41.94
62712;BME280;48772;55.586;37.730;2022-08-07T14:59:02;99420.41;;;27.27;42.03
62712;BME280;48772;55.586;37.730;2022-08-07T15:01:33;99406.53;;;27.10;42.62
62712;BME280;48772;55.586;37.730;2022-08-07T15:04:04;99417.47;;;27.10;42.73
62712;BME280;48772;55.586;37.730;2022-08-07T15:06:36;99431.91;;;27.17;42.23
62712;BME280;48772;55.586;37.730;2022-08-07T15:09:06;99445.25;;;27.14;43.03
62712;BME280;48772;55.586;37.730;2022-08-07T15:11:39;99442.09;;;26.69;44.91
62712;BME280;48772;55.586;37.730;2022-08-07T15:14:07;99460.56;;;26.56;46.02
62712;BME280;48772;55.586;37.730;2022-08-07T15:16:40;99459.59;;;26.50;46.18
62712;BME280;48772;55.586;37.730;2022-08-07T15:19:14;99464.47;;;26.30;46.79
62712;BME280;48772;55.586;37.730;2022-08-07T15:21:42;99433.69;;;26.17;46.79
62712;BME280;48772;55.586;37.730;2022-08-07T15:24:14;99446.22;;;26.24;47.32
62712;BME280;48772;55.586;37.730;2022-08-07T15:26:44;99413.19;;;26.08;47.33
62712;BME280;48772;55.586;37.730;2022-08-07T15:29:16;99422.75;;;26.17;46.95
62712;BME280;48772;55.586;37.730;2022-08-07T15:31:47;99418.03;;;26.24;47.09
62712;BME280;48772;55.586;37.730;2022-08-07T15:34:13;99404.59;;;26.22;46.73
62712;BME280;48772;55.586;37.730;2022-08-07T15:36:39;99417.66;;;26.38;46.78
62712;BME280;48772;55.586;37.730;2022-08-07T15:39:07;99420.06;;;26.46;46.46
62712;BME280;48772;55.586;37.730;2022-08-07T15:41:38;99418.41;;;26.45;46.74
62712;BME280;48772;55.586;37.730;2022-08-07T15:44:21;99404.13;;;26.43;46.58
62712;BME280;48772;55.586;37.730;2022-08-07T15:47:01;99379.09;;;26.28;46.53
62712;BME280;48772;55.586;37.730;2022-08-07T15:49:30;99395.03;;;26.31;46.58
62712;BME280;48772;55.586;37.730;2022-08-07T15:51:59;99382.13;;;26.20;46.63
62712;BME280;48772;55.586;37.730;2022-08-07T15:54:32;99389.09;;;26.34;46.52
62712;BME280;48772;55.586;37.730;2022-08-07T15:56:59;99396.25;;;26.35;46.52